sensor_id;sensor_type;location;lat;lon;timestamp;P1;durP1;ratioP1;P2;durP2;ratioP2
62798;SDS011;48842;51.046;13.796;2022-09-29T00:01:32;5.30;;;4.80;;
62798;SDS011;48842;51.046;13.796;2022-09-29T00:03:57;5.20;;;4.80;;
62798;SDS011;48842;51.046;13.796;2022-09-29T00:06:23;5.57;;;4.80;;
62798;SDS011;48842;51.046;13.796;2022-09-29T00:08:48;4.97;;;4.60;;
62798;SDS011;48842;51.046;13.796;2022-09-29T00:11:15;7.50;;;5.73;;
62798;SDS011;48842;51.046;13.796;2022-09-29T00:13:43;5.27;;;4.30;;
62798;SDS011;48842;51.046;13.796;2022-09-29T00:16:09;7.13;;;4.70;;
62798;SDS011;48842;51.046;13.796;2022-09-29T00:18:35;4.97;;;4.47;;
62798;SDS011;48842;51.046;13.796;2022-09-29T00:21:12;9.43;;;5.20;;
62798;SDS011;48842;51.046;13.796;2022-09-29T00:23:43;4.60;;;4.20;;
62798;SDS011;48842;51.046;13.796;2022-09-29T00:26:13;4.20;;;3.90;;
62798;SDS011;48842;51.046;13.796;2022-09-29T00:28:44;4.40;;;4.00;;
62798;SDS011;48842;51.046;13.796;2022-09-29T00:31:16;4.60;;;4.30;;
62798;SDS011;48842;51.046;13.796;2022-09-29T00:33:41;4.73;;;4.33;;
62798;SDS011;48842;51.046;13.796;2022-09-29T00:36:08;4.90;;;3.90;;
62798;SDS011;48842;51.046;13.796;2022-09-29T00:38:36;3.70;;;3.50;;
62798;SDS011;48842;51.046;13.796;2022-09-29T00:41:02;4.80;;;4.40;;
62798;SDS011;48842;51.046;13.796;2022-09-29T00:46:14;10.50;;;4.10;;
62798;SDS011;48842;51.046;13.796;2022-09-29T00:48:43;4.33;;;3.97;;
62798;SDS011;48842;51.046;13.796;2022-09-29T00:51:10;8.23;;;4.30;;
62798;SDS011;48842;51.046;13.796;2022-09-29T00:53:35;5.13;;;3.90;;
62798;SDS011;48842;51.046;13.796;2022-09-29T00:56:02;4.07;;;3.87;;
62798;SDS011;48842;51.046;13.796;2022-09-29T00:58:32;5.63;;;4.17;;
62798;SDS011;48842;51.046;13.796;2022-09-29T01:01:00;4.20;;;3.80;;
62798;SDS011;48842;51.046;13.796;2022-09-29T01:03:28;5.37;;;4.97;;
62798;SDS011;48842;51.046;13.796;2022-09-29T01:05:57;4.17;;;3.93;;
62798;SDS011;48842;51.046;13.796;2022-09-29T01:08:27;5.30;;;3.80;;
62798;SDS011;48842;51.046;13.796;2022-09-29T01:11:00;4.07;;;3.77;;
62798;SDS011;48842;51.046;13.796;2022-09-29T01:13:27;4.10;;;3.80;;
62798;SDS011;48842;51.046;13.796;2022-09-29T01:15:54;3.23;;;3.10;;
62798;SDS011;48842;51.046;13.796;2022-09-29T01:18:19;4.23;;;3.93;;
62798;SDS011;48842;51.046;13.796;2022-09-29T01:20:50;4.10;;;3.80;;
62798;SDS011;48842;51.046;13.796;2022-09-29T01:29:24;4.73;;;3.33;;
62798;SDS011;48842;51.046;13.796;2022-09-29T01:32:32;3.50;;;3.30;;
62798;SDS011;48842;51.046;13.796;2022-09-29T01:36:00;2.97;;;2.70;;
62798;SDS011;48842;51.046;13.796;2022-09-29T01:40:43;3.60;;;3.40;;
62798;SDS011;48842;51.046;13.796;2022-09-29T01:43:15;3.50;;;3.30;;
62798;SDS011;48842;51.046;13.796;2022-09-29T01:45:50;3.60;;;3.30;;
62798;SDS011;48842;51.046;13.796;2022-09-29T01:48:27;3.13;;;2.93;;
62798;SDS011;48842;51.046;13.796;2022-09-29T01:50:57;3.23;;;3.03;;
62798;SDS011;48842;51.046;13.796;2022-09-29T01:53:48;3.57;;;3.37;;
62798;SDS011;48842;51.046;13.796;2022-09-29T01:56:34;3.33;;;2.97;;
62798;SDS011;48842;51.046;13.796;2022-09-29T02:01:47;3.60;;;3.00;;
62798;SDS011;48842;51.046;13.796;2022-09-29T02:04:20;6.40;;;2.90;;
62798;SDS011;48842;51.046;13.796;2022-09-29T02:06:54;4.37;;;2.83;;
62798;SDS011;48842;51.046;13.796;2022-09-29T02:09:26;3.53;;;3.37;;
62798;SDS011;48842;51.046;13.796;2022-09-29T02:11:57;5.93;;;3.50;;
62798;SDS011;48842;51.046;13.796;2022-09-29T02:14:27;3.87;;;3.37;;
62798;SDS011;48842;51.046;13.796;2022-09-29T02:17:01;3.73;;;3.53;;
62798;SDS011;48842;51.046;13.796;2022-09-29T02:19:33;3.70;;;3.50;;
62798;SDS011;48842;51.046;13.796;2022-09-29T02:22:00;3.50;;;3.30;;
62798;SDS011;48842;51.046;13.796;2022-09-29T02:24:26;3.67;;;3.47;;
62798;SDS011;48842;51.046;13.796;2022-09-29T02:26:51;3.70;;;3.50;;
62798;SDS011;48842;51.046;13.796;2022-09-29T02:29:17;3.77;;;3.57;;
62798;SDS011;48842;51.046;13.796;2022-09-29T02:31:42;6.70;;;3.00;;
62798;SDS011;48842;51.046;13.796;2022-09-29T02:34:11;3.70;;;3.50;;
62798;SDS011;48842;51.046;13.796;2022-09-29T02:47:21;3.60;;;3.30;;
62798;SDS011;48842;51.046;13.796;2022-09-29T02:58:13;4.73;;;3.87;;
62798;SDS011;48842;51.046;13.796;2022-09-29T03:00:44;4.40;;;4.03;;
62798;SDS011;48842;51.046;13.796;2022-09-29T03:03:11;5.00;;;4.50;;
62798;SDS011;48842;51.046;13.796;2022-09-29T03:05:36;6.93;;;6.33;;
62798;SDS011;48842;51.046;13.796;2022-09-29T03:08:01;8.33;;;6.67;;
62798;SDS011;48842;51.046;13.796;2022-09-29T03:10:27;9.67;;;6.97;;
62798;SDS011;48842;51.046;13.796;2022-09-29T03:12:52;6.63;;;6.13;;
62798;SDS011;48842;51.046;13.796;2022-09-29T03:15:17;6.43;;;5.60;;
62798;SDS011;48842;51.046;13.796;2022-09-29T03:17:43;6.00;;;5.50;;
62798;SDS011;48842;51.046;13.796;2022-09-29T03:20:09;6.53;;;6.03;;
62798;SDS011;48842;51.046;13.796;2022-09-29T03:22:35;5.40;;;5.00;;
62798;SDS011;48842;51.046;13.796;2022-09-29T03:25:00;5.90;;;5.40;;
62798;SDS011;48842;51.046;13.796;2022-09-29T03:27:26;5.70;;;5.20;;
62798;SDS011;48842;51.046;13.796;2022-09-29T03:29:51;5.37;;;4.97;;
62798;SDS011;48842;51.046;13.796;2022-09-29T03:32:16;4.50;;;4.10;;
62798;SDS011;48842;51.046;13.796;2022-09-29T03:34:42;5.20;;;4.77;;
62798;SDS011;48842;51.046;13.796;2022-09-29T03:37:07;4.20;;;3.90;;
62798;SDS011;48842;51.046;13.796;2022-09-29T03:39:33;4.80;;;4.50;;
62798;SDS011;48842;51.046;13.796;2022-09-29T03:41:59;4.50;;;4.20;;
62798;SDS011;48842;51.046;13.796;2022-09-29T03:44:24;4.27;;;3.97;;
62798;SDS011;48842;51.046;13.796;2022-09-29T03:46:49;4.57;;;4.27;;
62798;SDS011;48842;51.046;13.796;2022-09-29T03:49:15;3.97;;;3.77;;
62798;SDS011;48842;51.046;13.796;2022-09-29T03:51:40;4.93;;;4.40;;
62798;SDS011;48842;51.046;13.796;2022-09-29T03:54:06;8.13;;;4.00;;
62798;SDS011;48842;51.046;13.796;2022-09-29T03:56:32;5.07;;;4.67;;
62798;SDS011;48842;51.046;13.796;2022-09-29T03:58:58;5.60;;;5.03;;
62798;SDS011;48842;51.046;13.796;2022-09-29T04:01:23;4.63;;;4.30;;
62798;SDS011;48842;51.046;13.796;2022-09-29T04:03:49;5.03;;;4.50;;
62798;SDS011;48842;51.046;13.796;2022-09-29T04:06:14;5.87;;;4.63;;
62798;SDS011;48842;51.046;13.796;2022-09-29T04:08:39;5.10;;;4.60;;
62798;SDS011;48842;51.046;13.796;2022-09-29T04:11:05;7.67;;;5.80;;
62798;SDS011;48842;51.046;13.796;2022-09-29T04:13:31;6.70;;;5.90;;
62798;SDS011;48842;51.046;13.796;2022-09-29T04:15:57;8.13;;;6.40;;
62798;SDS011;48842;51.046;13.796;2022-09-29T04:18:24;9.17;;;6.50;;
62798;SDS011;48842;51.046;13.796;2022-09-29T04:20:49;8.10;;;6.10;;
62798;SDS011;48842;51.046;13.796;2022-09-29T04:23:14;5.30;;;4.80;;
62798;SDS011;48842;51.046;13.796;2022-09-29T04:25:40;4.83;;;4.43;;
62798;SDS011;48842;51.046;13.796;2022-09-29T04:28:05;5.63;;;5.23;;
62798;SDS011;48842;51.046;13.796;2022-09-29T04:30:30;5.20;;;4.80;;
62798;SDS011;48842;51.046;13.796;2022-09-29T04:32:55;5.33;;;4.83;;
62798;SDS011;48842;51.046;13.796;2022-09-29T04:35:21;4.90;;;4.50;;
62798;SDS011;48842;51.046;13.796;2022-09-29T04:37:46;10.23;;;5.30;;
62798;SDS011;48842;51.046;13.796;2022-09-29T04:40:12;6.50;;;5.90;;
62798;SDS011;48842;51.046;13.796;2022-09-29T04:42:37;7.00;;;4.63;;
62798;SDS011;48842;51.046;13.796;2022-09-29T04:45:02;4.77;;;4.37;;
62798;SDS011;48842;51.046;13.796;2022-09-29T04:47:28;5.30;;;4.90;;
62798;SDS011;48842;51.046;13.796;2022-09-29T04:49:53;5.13;;;4.63;;
62798;SDS011;48842;51.046;13.796;2022-09-29T04:52:18;11.20;;;5.00;;
62798;SDS011;48842;51.046;13.796;2022-09-29T04:54:44;6.03;;;5.53;;
62798;SDS011;48842;51.046;13.796;2022-09-29T04:57:09;5.60;;;5.10;;
62798;SDS011;48842;51.046;13.796;2022-09-29T04:59:34;5.43;;;4.93;;
62798;SDS011;48842;51.046;13.796;2022-09-29T05:02:00;4.70;;;4.40;;
62798;SDS011;48842;51.046;13.796;2022-09-29T05:04:25;5.43;;;4.83;;
62798;SDS011;48842;51.046;13.796;2022-09-29T05:06:50;5.63;;;5.10;;
62798;SDS011;48842;51.046;13.796;2022-09-29T05:09:15;5.20;;;4.57;;
62798;SDS011;48842;51.046;13.796;2022-09-29T05:11:41;5.37;;;5.00;;
62798;SDS011;48842;51.046;13.796;2022-09-29T05:14:06;5.23;;;4.93;;
62798;SDS011;48842;51.046;13.796;2022-09-29T05:16:31;5.20;;;4.70;;
62798;SDS011;48842;51.046;13.796;2022-09-29T05:18:57;5.10;;;4.70;;
62798;SDS011;48842;51.046;13.796;2022-09-29T05:21:23;5.23;;;4.67;;
62798;SDS011;48842;51.046;13.796;2022-09-29T05:23:49;5.90;;;5.40;;
62798;SDS011;48842;51.046;13.796;2022-09-29T05:26:14;12.70;;;5.20;;
62798;SDS011;48842;51.046;13.796;2022-09-29T05:28:43;5.63;;;5.10;;
62798;SDS011;48842;51.046;13.796;2022-09-29T05:31:10;5.20;;;4.57;;
62798;SDS011;48842;51.046;13.796;2022-09-29T05:33:36;5.50;;;5.10;;
62798;SDS011;48842;51.046;13.796;2022-09-29T05:36:05;4.97;;;4.53;;
62798;SDS011;48842;51.046;13.796;2022-09-29T05:38:34;4.63;;;4.33;;
62798;SDS011;48842;51.046;13.796;2022-09-29T05:41:04;6.17;;;5.40;;
62798;SDS011;48842;51.046;13.796;2022-09-29T05:43:30;5.67;;;4.70;;
62798;SDS011;48842;51.046;13.796;2022-09-29T05:45:59;6.60;;;6.00;;
62798;SDS011;48842;51.046;13.796;2022-09-29T05:48:26;6.10;;;4.93;;
62798;SDS011;48842;51.046;13.796;2022-09-29T05:50:54;5.90;;;5.07;;
62798;SDS011;48842;51.046;13.796;2022-09-29T05:53:19;12.80;;;5.53;;
62798;SDS011;48842;51.046;13.796;2022-09-29T05:55:45;6.00;;;5.40;;
62798;SDS011;48842;51.046;13.796;2022-09-29T05:58:10;5.60;;;5.17;;
62798;SDS011;48842;51.046;13.796;2022-09-29T06:00:35;10.43;;;5.73;;
62798;SDS011;48842;51.046;13.796;2022-09-29T06:03:01;6.00;;;5.50;;
62798;SDS011;48842;51.046;13.796;2022-09-29T06:05:27;6.20;;;5.53;;
62798;SDS011;48842;51.046;13.796;2022-09-29T06:07:52;5.90;;;5.40;;
62798;SDS011;48842;51.046;13.796;2022-09-29T06:10:18;9.87;;;6.00;;
62798;SDS011;48842;51.046;13.796;2022-09-29T06:12:43;6.27;;;5.67;;
62798;SDS011;48842;51.046;13.796;2022-09-29T06:15:09;6.23;;;5.63;;
62798;SDS011;48842;51.046;13.796;2022-09-29T06:17:35;10.90;;;6.53;;
62798;SDS011;48842;51.046;13.796;2022-09-29T06:20:01;6.87;;;6.27;;
62798;SDS011;48842;51.046;13.796;2022-09-29T06:22:28;6.47;;;5.87;;
62798;SDS011;48842;51.046;13.796;2022-09-29T06:24:54;6.70;;;5.93;;
62798;SDS011;48842;51.046;13.796;2022-09-29T06:27:19;8.57;;;6.87;;
62798;SDS011;48842;51.046;13.796;2022-09-29T06:29:44;8.27;;;6.87;;
62798;SDS011;48842;51.046;13.796;2022-09-29T06:32:10;6.90;;;6.30;;
62798;SDS011;48842;51.046;13.796;2022-09-29T06:34:35;7.60;;;6.90;;
62798;SDS011;48842;51.046;13.796;2022-09-29T06:37:20;7.27;;;6.57;;
62798;SDS011;48842;51.046;13.796;2022-09-29T06:40:04;7.13;;;6.07;;
62798;SDS011;48842;51.046;13.796;2022-09-29T06:42:32;7.70;;;6.97;;
62798;SDS011;48842;51.046;13.796;2022-09-29T06:44:57;7.07;;;6.47;;
62798;SDS011;48842;51.046;13.796;2022-09-29T06:47:22;6.47;;;5.40;;
62798;SDS011;48842;51.046;13.796;2022-09-29T06:49:48;8.67;;;6.97;;
62798;SDS011;48842;51.046;13.796;2022-09-29T06:52:14;7.67;;;6.00;;
62798;SDS011;48842;51.046;13.796;2022-09-29T06:54:40;6.90;;;5.70;;
62798;SDS011;48842;51.046;13.796;2022-09-29T06:57:05;9.20;;;6.23;;
62798;SDS011;48842;51.046;13.796;2022-09-29T06:59:30;9.27;;;6.50;;
62798;SDS011;48842;51.046;13.796;2022-09-29T07:01:55;7.70;;;5.80;;
62798;SDS011;48842;51.046;13.796;2022-09-29T07:04:20;9.03;;;6.80;;
62798;SDS011;48842;51.046;13.796;2022-09-29T07:06:46;8.30;;;7.53;;
62798;SDS011;48842;51.046;13.796;2022-09-29T07:09:12;6.57;;;6.00;;
62798;SDS011;48842;51.046;13.796;2022-09-29T07:11:40;7.30;;;6.60;;
62798;SDS011;48842;51.046;13.796;2022-09-29T07:14:11;11.53;;;6.87;;
62798;SDS011;48842;51.046;13.796;2022-09-29T07:16:37;6.50;;;5.97;;
62798;SDS011;48842;51.046;13.796;2022-09-29T07:19:02;8.50;;;7.57;;
62798;SDS011;48842;51.046;13.796;2022-09-29T07:21:27;7.20;;;6.50;;
62798;SDS011;48842;51.046;13.796;2022-09-29T07:23:53;7.43;;;6.83;;
62798;SDS011;48842;51.046;13.796;2022-09-29T07:26:18;9.60;;;7.13;;
62798;SDS011;48842;51.046;13.796;2022-09-29T07:28:44;9.20;;;7.33;;
62798;SDS011;48842;51.046;13.796;2022-09-29T07:31:11;11.43;;;6.17;;
62798;SDS011;48842;51.046;13.796;2022-09-29T07:33:45;8.17;;;7.37;;
62798;SDS011;48842;51.046;13.796;2022-09-29T07:36:11;8.23;;;7.43;;
62798;SDS011;48842;51.046;13.796;2022-09-29T07:38:37;7.70;;;6.70;;
62798;SDS011;48842;51.046;13.796;2022-09-29T07:41:05;7.30;;;6.60;;
62798;SDS011;48842;51.046;13.796;2022-09-29T07:43:31;7.37;;;6.40;;
62798;SDS011;48842;51.046;13.796;2022-09-29T07:45:57;7.47;;;6.67;;
62798;SDS011;48842;51.046;13.796;2022-09-29T07:48:24;8.30;;;6.50;;
62798;SDS011;48842;51.046;13.796;2022-09-29T07:50:49;6.90;;;6.10;;
62798;SDS011;48842;51.046;13.796;2022-09-29T07:53:16;7.13;;;6.53;;
62798;SDS011;48842;51.046;13.796;2022-09-29T07:55:42;6.53;;;5.93;;
62798;SDS011;48842;51.046;13.796;2022-09-29T07:58:07;7.33;;;6.47;;
62798;SDS011;48842;51.046;13.796;2022-09-29T08:00:32;10.93;;;6.90;;
62798;SDS011;48842;51.046;13.796;2022-09-29T08:02:58;6.80;;;6.20;;
62798;SDS011;48842;51.046;13.796;2022-09-29T08:05:26;7.30;;;6.70;;
62798;SDS011;48842;51.046;13.796;2022-09-29T08:07:51;6.90;;;6.30;;
62798;SDS011;48842;51.046;13.796;2022-09-29T08:10:17;7.70;;;6.20;;
62798;SDS011;48842;51.046;13.796;2022-09-29T08:12:42;6.80;;;6.10;;
62798;SDS011;48842;51.046;13.796;2022-09-29T08:15:07;8.00;;;6.23;;
62798;SDS011;48842;51.046;13.796;2022-09-29T08:17:33;9.90;;;5.70;;
62798;SDS011;48842;51.046;13.796;2022-09-29T08:19:58;6.73;;;6.13;;
62798;SDS011;48842;51.046;13.796;2022-09-29T08:22:23;7.40;;;6.80;;
62798;SDS011;48842;51.046;13.796;2022-09-29T08:24:49;6.87;;;6.17;;
62798;SDS011;48842;51.046;13.796;2022-09-29T08:27:14;7.13;;;6.10;;
62798;SDS011;48842;51.046;13.796;2022-09-29T08:29:40;8.07;;;5.77;;
62798;SDS011;48842;51.046;13.796;2022-09-29T08:32:06;7.30;;;6.60;;
62798;SDS011;48842;51.046;13.796;2022-09-29T08:34:31;12.53;;;7.20;;
62798;SDS011;48842;51.046;13.796;2022-09-29T08:36:56;7.17;;;6.47;;
62798;SDS011;48842;51.046;13.796;2022-09-29T08:39:21;6.37;;;5.77;;
62798;SDS011;48842;51.046;13.796;2022-09-29T08:41:48;8.43;;;6.83;;
62798;SDS011;48842;51.046;13.796;2022-09-29T08:44:31;7.00;;;6.30;;
62798;SDS011;48842;51.046;13.796;2022-09-29T08:49:44;7.53;;;6.10;;
62798;SDS011;48842;51.046;13.796;2022-09-29T08:52:14;7.57;;;6.67;;
62798;SDS011;48842;51.046;13.796;2022-09-29T08:54:43;8.53;;;6.60;;
62798;SDS011;48842;51.046;13.796;2022-09-29T08:57:15;14.40;;;7.60;;
62798;SDS011;48842;51.046;13.796;2022-09-29T08:59:57;8.63;;;6.80;;
62798;SDS011;48842;51.046;13.796;2022-09-29T09:05:49;7.43;;;6.73;;
62798;SDS011;48842;51.046;13.796;2022-09-29T09:08:37;6.83;;;6.17;;
62798;SDS011;48842;51.046;13.796;2022-09-29T09:11:20;11.83;;;6.23;;
62798;SDS011;48842;51.046;13.796;2022-09-29T09:13:58;8.80;;;6.87;;
62798;SDS011;48842;51.046;13.796;2022-09-29T09:16:48;8.77;;;6.00;;
62798;SDS011;48842;51.046;13.796;2022-09-29T09:19:34;7.83;;;7.10;;
62798;SDS011;48842;51.046;13.796;2022-09-29T09:24:47;7.90;;;7.10;;
62798;SDS011;48842;51.046;13.796;2022-09-29T09:27:20;7.17;;;6.47;;
62798;SDS011;48842;51.046;13.796;2022-09-29T09:30:02;7.77;;;7.10;;
62798;SDS011;48842;51.046;13.796;2022-09-29T09:32:31;8.67;;;6.83;;
62798;SDS011;48842;51.046;13.796;2022-09-29T09:36:04;7.80;;;7.10;;
62798;SDS011;48842;51.046;13.796;2022-09-29T09:38:09;8.40;;;7.53;;
62798;SDS011;48842;51.046;13.796;2022-09-29T09:40:43;7.90;;;7.13;;
62798;SDS011;48842;51.046;13.796;2022-09-29T09:43:13;6.53;;;6.00;;
62798;SDS011;48842;51.046;13.796;2022-09-29T09:45:56;7.73;;;5.30;;
62798;SDS011;48842;51.046;13.796;2022-09-29T09:48:34;8.53;;;5.83;;
62798;SDS011;48842;51.046;13.796;2022-09-29T09:54:01;6.73;;;6.03;;
62798;SDS011;48842;51.046;13.796;2022-09-29T09:56:52;10.00;;;6.23;;
62798;SDS011;48842;51.046;13.796;2022-09-29T10:02:16;7.43;;;6.10;;
62798;SDS011;48842;51.046;13.796;2022-09-29T10:04:45;6.83;;;5.80;;
62798;SDS011;48842;51.046;13.796;2022-09-29T10:07:13;6.30;;;5.80;;
62798;SDS011;48842;51.046;13.796;2022-09-29T10:09:39;6.93;;;6.33;;
62798;SDS011;48842;51.046;13.796;2022-09-29T10:12:06;6.40;;;5.80;;
62798;SDS011;48842;51.046;13.796;2022-09-29T10:14:47;5.20;;;4.57;;
62798;SDS011;48842;51.046;13.796;2022-09-29T10:17:39;6.60;;;5.53;;
62798;SDS011;48842;51.046;13.796;2022-09-29T10:20:08;5.87;;;4.40;;
62798;SDS011;48842;51.046;13.796;2022-09-29T10:22:34;10.23;;;5.07;;
62798;SDS011;48842;51.046;13.796;2022-09-29T10:25:07;4.83;;;4.43;;
62798;SDS011;48842;51.046;13.796;2022-09-29T10:27:40;5.57;;;5.07;;
62798;SDS011;48842;51.046;13.796;2022-09-29T10:30:17;5.73;;;5.10;;
62798;SDS011;48842;51.046;13.796;2022-09-29T10:32:44;4.50;;;4.20;;
62798;SDS011;48842;51.046;13.796;2022-09-29T10:35:24;4.00;;;3.80;;
62798;SDS011;48842;51.046;13.796;2022-09-29T10:37:59;4.37;;;4.07;;
62798;SDS011;48842;51.046;13.796;2022-09-29T10:40:26;4.50;;;4.20;;
62798;SDS011;48842;51.046;13.796;2022-09-29T10:42:52;5.10;;;3.77;;
62798;SDS011;48842;51.046;13.796;2022-09-29T10:45:18;4.20;;;3.90;;
62798;SDS011;48842;51.046;13.796;2022-09-29T10:48:27;5.10;;;3.60;;
62798;SDS011;48842;51.046;13.796;2022-09-29T10:50:48;3.33;;;3.00;;
62798;SDS011;48842;51.046;13.796;2022-09-29T10:56:18;4.93;;;3.80;;
62798;SDS011;48842;51.046;13.796;2022-09-29T10:58:53;3.60;;;3.30;;
62798;SDS011;48842;51.046;13.796;2022-09-29T11:01:21;2.70;;;2.50;;
62798;SDS011;48842;51.046;13.796;2022-09-29T11:03:47;2.80;;;2.60;;
62798;SDS011;48842;51.046;13.796;2022-09-29T11:06:16;3.47;;;3.00;;
62798;SDS011;48842;51.046;13.796;2022-09-29T11:09:01;3.10;;;2.90;;
62798;SDS011;48842;51.046;13.796;2022-09-29T11:13:58;2.90;;;2.80;;
62798;SDS011;48842;51.046;13.796;2022-09-29T11:16:28;3.00;;;2.80;;
62798;SDS011;48842;51.046;13.796;2022-09-29T11:19:08;3.00;;;2.80;;
62798;SDS011;48842;51.046;13.796;2022-09-29T11:26:58;2.73;;;2.57;;
62798;SDS011;48842;51.046;13.796;2022-09-29T11:40:10;2.87;;;1.97;;
62798;SDS011;48842;51.046;13.796;2022-09-29T11:42:48;2.90;;;2.60;;
62798;SDS011;48842;51.046;13.796;2022-09-29T11:45:59;3.53;;;3.13;;
62798;SDS011;48842;51.046;13.796;2022-09-29T11:48:35;3.00;;;2.80;;
62798;SDS011;48842;51.046;13.796;2022-09-29T11:57:03;2.67;;;2.53;;
62798;SDS011;48842;51.046;13.796;2022-09-29T12:02:53;2.17;;;1.97;;
62798;SDS011;48842;51.046;13.796;2022-09-29T12:08:22;2.37;;;2.27;;
62798;SDS011;48842;51.046;13.796;2022-09-29T12:11:06;5.47;;;2.20;;
62798;SDS011;48842;51.046;13.796;2022-09-29T12:16:34;3.30;;;2.00;;
62798;SDS011;48842;51.046;13.796;2022-09-29T12:21:41;4.20;;;2.17;;
62798;SDS011;48842;51.046;13.796;2022-09-29T12:30:03;1.90;;;1.77;;
62798;SDS011;48842;51.046;13.796;2022-09-29T12:35:39;2.07;;;1.40;;
62798;SDS011;48842;51.046;13.796;2022-09-29T12:38:16;1.70;;;1.60;;
62798;SDS011;48842;51.046;13.796;2022-09-29T12:43:50;5.23;;;1.53;;
62798;SDS011;48842;51.046;13.796;2022-09-29T12:46:26;2.80;;;1.90;;
62798;SDS011;48842;51.046;13.796;2022-09-29T12:49:07;2.13;;;1.93;;
62798;SDS011;48842;51.046;13.796;2022-09-29T12:51:41;2.87;;;2.67;;
62798;SDS011;48842;51.046;13.796;2022-09-29T12:54:27;3.00;;;2.67;;
62798;SDS011;48842;51.046;13.796;2022-09-29T12:57:03;2.47;;;2.37;;
62798;SDS011;48842;51.046;13.796;2022-09-29T13:05:27;2.50;;;2.37;;
62798;SDS011;48842;51.046;13.796;2022-09-29T13:18:52;3.63;;;2.80;;
62798;SDS011;48842;51.046;13.796;2022-09-29T13:21:37;2.93;;;2.73;;
62798;SDS011;48842;51.046;13.796;2022-09-29T13:24:19;3.20;;;2.87;;
62798;SDS011;48842;51.046;13.796;2022-09-29T13:33:01;3.17;;;2.40;;
62798;SDS011;48842;51.046;13.796;2022-09-29T13:35:41;3.20;;;2.90;;
62798;SDS011;48842;51.046;13.796;2022-09-29T13:38:19;2.83;;;2.60;;
62798;SDS011;48842;51.046;13.796;2022-09-29T13:46:35;2.53;;;2.43;;
62798;SDS011;48842;51.046;13.796;2022-09-29T13:49:38;3.20;;;2.63;;
62798;SDS011;48842;51.046;13.796;2022-09-29T13:54:35;9.23;;;3.17;;
62798;SDS011;48842;51.046;13.796;2022-09-29T13:59:59;3.50;;;2.93;;
62798;SDS011;48842;51.046;13.796;2022-09-29T14:10:23;7.00;;;2.63;;
62798;SDS011;48842;51.046;13.796;2022-09-29T14:13:00;2.67;;;2.23;;
62798;SDS011;48842;51.046;13.796;2022-09-29T14:15:32;2.50;;;2.30;;
62798;SDS011;48842;51.046;13.796;2022-09-29T14:18:04;4.47;;;2.70;;
62798;SDS011;48842;51.046;13.796;2022-09-29T14:20:41;2.87;;;2.30;;
62798;SDS011;48842;51.046;13.796;2022-09-29T14:26:33;2.27;;;2.17;;
62798;SDS011;48842;51.046;13.796;2022-09-29T14:29:11;2.87;;;2.53;;
62798;SDS011;48842;51.046;13.796;2022-09-29T14:31:43;5.10;;;3.33;;
62798;SDS011;48842;51.046;13.796;2022-09-29T14:34:11;5.70;;;2.40;;
62798;SDS011;48842;51.046;13.796;2022-09-29T14:36:40;2.27;;;2.17;;
62798;SDS011;48842;51.046;13.796;2022-09-29T14:39:09;5.33;;;2.63;;
62798;SDS011;48842;51.046;13.796;2022-09-29T14:41:39;7.40;;;2.77;;
62798;SDS011;48842;51.046;13.796;2022-09-29T14:44:07;3.20;;;2.97;;
62798;SDS011;48842;51.046;13.796;2022-09-29T14:53:41;3.43;;;3.10;;
62798;SDS011;48842;51.046;13.796;2022-09-29T14:56:33;11.70;;;3.60;;
62798;SDS011;48842;51.046;13.796;2022-09-29T15:02:28;4.20;;;2.73;;
62798;SDS011;48842;51.046;13.796;2022-09-29T15:04:58;3.63;;;3.27;;
62798;SDS011;48842;51.046;13.796;2022-09-29T15:07:24;3.70;;;3.40;;
62798;SDS011;48842;51.046;13.796;2022-09-29T15:09:53;4.13;;;3.70;;
62798;SDS011;48842;51.046;13.796;2022-09-29T15:12:22;3.77;;;3.47;;
62798;SDS011;48842;51.046;13.796;2022-09-29T15:14:53;4.67;;;3.63;;
62798;SDS011;48842;51.046;13.796;2022-09-29T15:20:32;8.10;;;3.80;;
62798;SDS011;48842;51.046;13.796;2022-09-29T15:25:59;4.37;;;4.00;;
62798;SDS011;48842;51.046;13.796;2022-09-29T15:31:06;4.00;;;3.60;;
62798;SDS011;48842;51.046;13.796;2022-09-29T15:33:34;6.93;;;3.80;;
62798;SDS011;48842;51.046;13.796;2022-09-29T15:38:36;4.13;;;3.70;;
62798;SDS011;48842;51.046;13.796;2022-09-29T15:41:14;11.30;;;4.00;;
62798;SDS011;48842;51.046;13.796;2022-09-29T15:43:42;4.87;;;4.47;;
62798;SDS011;48842;51.046;13.796;2022-09-29T15:46:19;5.00;;;4.60;;
62798;SDS011;48842;51.046;13.796;2022-09-29T15:51:33;4.60;;;3.80;;
62798;SDS011;48842;51.046;13.796;2022-09-29T15:54:00;5.53;;;4.20;;
62798;SDS011;48842;51.046;13.796;2022-09-29T15:56:29;5.00;;;4.23;;
62798;SDS011;48842;51.046;13.796;2022-09-29T15:58:55;4.70;;;3.60;;
62798;SDS011;48842;51.046;13.796;2022-09-29T16:01:21;4.70;;;4.07;;
62798;SDS011;48842;51.046;13.796;2022-09-29T16:03:55;4.63;;;3.80;;
62798;SDS011;48842;51.046;13.796;2022-09-29T16:06:27;5.30;;;4.00;;
62798;SDS011;48842;51.046;13.796;2022-09-29T16:08:56;8.30;;;4.30;;
62798;SDS011;48842;51.046;13.796;2022-09-29T16:11:26;7.20;;;3.90;;
62798;SDS011;48842;51.046;13.796;2022-09-29T16:14:28;5.50;;;4.97;;
62798;SDS011;48842;51.046;13.796;2022-09-29T16:16:49;4.53;;;4.13;;
62798;SDS011;48842;51.046;13.796;2022-09-29T16:21:51;7.30;;;5.63;;
62798;SDS011;48842;51.046;13.796;2022-09-29T16:24:20;5.57;;;5.17;;
62798;SDS011;48842;51.046;13.796;2022-09-29T16:26:47;6.43;;;5.83;;
62798;SDS011;48842;51.046;13.796;2022-09-29T16:31:40;6.30;;;5.70;;
62798;SDS011;48842;51.046;13.796;2022-09-29T16:36:48;9.13;;;6.83;;
62798;SDS011;48842;51.046;13.796;2022-09-29T16:39:16;6.10;;;5.50;;
62798;SDS011;48842;51.046;13.796;2022-09-29T16:41:46;10.37;;;7.20;;
62798;SDS011;48842;51.046;13.796;2022-09-29T16:49:43;8.07;;;6.00;;
62798;SDS011;48842;51.046;13.796;2022-09-29T16:52:25;9.70;;;7.20;;
62798;SDS011;48842;51.046;13.796;2022-09-29T16:54:53;11.60;;;7.83;;
62798;SDS011;48842;51.046;13.796;2022-09-29T16:57:49;9.03;;;6.50;;
62798;SDS011;48842;51.046;13.796;2022-09-29T17:00:15;8.23;;;6.70;;
62798;SDS011;48842;51.046;13.796;2022-09-29T17:02:42;7.60;;;6.50;;
62798;SDS011;48842;51.046;13.796;2022-09-29T17:05:08;14.13;;;6.07;;
62798;SDS011;48842;51.046;13.796;2022-09-29T17:07:36;9.20;;;8.20;;
62798;SDS011;48842;51.046;13.796;2022-09-29T17:10:03;10.00;;;7.30;;
62798;SDS011;48842;51.046;13.796;2022-09-29T17:12:31;8.73;;;7.30;;
62798;SDS011;48842;51.046;13.796;2022-09-29T17:14:57;13.10;;;6.90;;
62798;SDS011;48842;51.046;13.796;2022-09-29T17:17:24;6.27;;;5.70;;
62798;SDS011;48842;51.046;13.796;2022-09-29T17:19:52;9.33;;;7.13;;
62798;SDS011;48842;51.046;13.796;2022-09-29T17:22:29;9.80;;;7.30;;
62798;SDS011;48842;51.046;13.796;2022-09-29T17:24:57;12.33;;;8.63;;
62798;SDS011;48842;51.046;13.796;2022-09-29T17:27:23;10.10;;;7.37;;
62798;SDS011;48842;51.046;13.796;2022-09-29T17:30:08;12.30;;;7.73;;
62798;SDS011;48842;51.046;13.796;2022-09-29T17:32:35;8.90;;;8.10;;
62798;SDS011;48842;51.046;13.796;2022-09-29T17:35:01;9.23;;;8.17;;
62798;SDS011;48842;51.046;13.796;2022-09-29T17:37:27;12.50;;;8.77;;
62798;SDS011;48842;51.046;13.796;2022-09-29T17:39:52;14.50;;;10.43;;
62798;SDS011;48842;51.046;13.796;2022-09-29T17:42:18;14.40;;;10.63;;
62798;SDS011;48842;51.046;13.796;2022-09-29T17:44:43;12.30;;;10.87;;
62798;SDS011;48842;51.046;13.796;2022-09-29T17:47:13;14.70;;;10.80;;
62798;SDS011;48842;51.046;13.796;2022-09-29T17:49:43;16.73;;;13.00;;
62798;SDS011;48842;51.046;13.796;2022-09-29T17:52:09;19.17;;;13.87;;